ADDS TAF Board (Experimental) INFO

IDs: Format: Expanded Condensed

Updated at: 0632 UTC 28 Jan 2015

KMEM - Memphis Intl, TN, US

Issued at 0520 UTC 28 Jan 2015
Time0554Z28/07Z28/08Z28/09Z28/10Z28/11Z28/12Z28/13Z28/14Z28/15Z28/16Z28/17Z28/18Z28/19Z
TypeOBSPRVLPRVLPRVLPRVLPRVLPRVLPRVLPRVLPRVLPRVLPRVLPRVLPRVL
VIS10>6>6>6>6>6>6>6>6>6>6>6>6>6
CIG----------------------------
CoverCLRSKCSKCSKCSKCSKCSKCSKCSKCSCTSCTSCTSCTSCT
FltCat--VFRVFRVFRVFRVFRVFRVFRVFRVFRVFRVFRVFRVFR
WX----------------------------
WDir1006060606060606060150150150150150
WSpd64444444488888
WGst----------------------------
R09/27
XWnd-122222222-7-7-7-7-7
HWnd63333333344444
R18/36
XWnd63333333344444
HWnd1-2-2-2-2-2-2-2-277777
Raw TAF
KMEM 280520Z 2806/2906 08008KT P6SM SKC
  FM280700 06004KT P6SM SKC
  FM281500 15008KT P6SM SCT250
  FM290300 17011KT P6SM FEW250


Raw METAR
KMEM 280554Z 10006KT 10SM CLR 06/M01 A3021 RMK AO2 SLP229 T00561006 10094 20056 401390028 53001 $

TAF Board Legend

Hazard VFR MVFR IFR LIFR
Visibility (sm) >5 3≤X≤5 1≤X<3 <1
Ceiling (100 ft) >30 10≤X≤30 5≤X<10 <5
Wind Speed (kt) <10 10≤X<20 20≤X<30 ≥30
Wind Gust (kt) <15 15≤X<25 25≤X<35 ≥35
Weather No Wx Reported VCTS,-TS,-FZRA TS,FZRA +TS,+FZRA


Page loaded:  06:32 UTC  |   10:32 PM Pacific  |   11:32 PM Mountain  |   12:32 AM Central  |   01:32 AM Eastern

 

ADVISORIES

FORECASTS

FORECASTS

OBSERVATIONS

USER TOOLS

ABOUT US